Main page
METAR-TAF:

METAR-TAF

Airports :

Weeze Airport

Weeze, Germany

latitude: 51-36-09N, longitude: 006-08-32E, elevation: 32 m

Current weather observation

The report was made 1 hour and 37 minutes ago, at 22:50 UTC
Wind 4 kt from the West/Northwest
Temperature 2°C
Humidity 87%
Pressure 1024 hPa
Visibility 10 km or more
no clouds below 1500 m and no cumulonimbus

METAR: EDLV 182250Z 30004KT CAVOK 02/M00 Q1024

Time: 01:27 (00:27 UTC)

Forecast

The report was made 7 hours and 27 minutes ago, at 17:00 UTC
Forecast valid from 18 at 18 UTC to 19 at 18 UTC
Wind 5 kt from the West/Northwest
Visibility 10 km or more
Few clouds at a height of 3000 ft
Becoming
from 18 at 18 UTC to 18 at 21 UTC
Wind 2 kt from variable directions
Temporary
from 19 at 03 UTC to 19 at 09 UTC
Visibility: 3000 m
mist
Becoming
from 19 at 08 UTC to 19 at 11 UTC
Wind 5 kt from the West/Southwest

TAF: EDLV 181700Z 1818/1918 30005KT 9999 FEW030 BECMG 1818/1821 VRB02KT TEMPO 1903/1909 3000 BR BECMG 1908/1911 25005KT

Weather observations and forecasts of more than 4000 airports (METAR and TAF reports).

The available stations are represented by yellow and red dots on the map.

Hover mouse over dot to see the name of the station.

Then click to see weather observations and forecasts.

To change the map : click on the green buttons with a black cross to zoom in, on the green button with a dash to zoom out, or on the green arrows for adjacent maps.


METAR-TAF: